Campinas, Brazil
Current Conditions -  °F | °C
As of 2:00 AM on Monday 26 Jan 2015 (Local Time) from SBKP Reporting Station
Thunderstorm Thunderstorm  
Wind Chill: 66°   Ceiling: 1800
Heat Index: 66°   Visibility: 1.2mi
Dew Point: 64°   Wind: 17mph
Humidity: 94%   Direction: 200°SSW
Pressure: 30.09"   Gusts: NA
Location:  22.91°S, 47.08°W
Report Text: SBKP 260400Z 20015KT 2000 +TSRA BR SCT009 BKN018 SCT035CB 19/18 Q1019
Loading
Personal Weather Stations






























Interactive Weather Map New forecast layout! Learn more

10-Day Weather Forecast

Advertisements
Track Severe Weather on mobile